sensor_id;sensor_type;location;lat;lon;timestamp;P1;durP1;ratioP1;P2;durP2;ratioP2
22435;SDS011;11385;50.822;4.324;2023-01-26T00:01:48;85.80;;;32.23;;
22435;SDS011;11385;50.822;4.324;2023-01-26T00:04:15;88.47;;;30.52;;
22435;SDS011;11385;50.822;4.324;2023-01-26T00:06:41;80.72;;;30.12;;
22435;SDS011;11385;50.822;4.324;2023-01-26T00:09:11;85.32;;;31.97;;
22435;SDS011;11385;50.822;4.324;2023-01-26T00:11:38;67.97;;;22.10;;
22435;SDS011;11385;50.822;4.324;2023-01-26T00:14:05;81.72;;;30.80;;
22435;SDS011;11385;50.822;4.324;2023-01-26T00:16:32;89.60;;;32.38;;
22435;SDS011;11385;50.822;4.324;2023-01-26T00:18:58;86.85;;;33.28;;
22435;SDS011;11385;50.822;4.324;2023-01-26T00:21:26;94.85;;;32.20;;
22435;SDS011;11385;50.822;4.324;2023-01-26T00:23:53;87.67;;;31.97;;
22435;SDS011;11385;50.822;4.324;2023-01-26T00:26:20;91.67;;;32.58;;
22435;SDS011;11385;50.822;4.324;2023-01-26T00:28:48;86.17;;;30.88;;
22435;SDS011;11385;50.822;4.324;2023-01-26T00:31:18;99.13;;;34.95;;
22435;SDS011;11385;50.822;4.324;2023-01-26T00:33:46;96.87;;;33.25;;
22435;SDS011;11385;50.822;4.324;2023-01-26T00:36:13;84.95;;;32.17;;
22435;SDS011;11385;50.822;4.324;2023-01-26T00:38:40;90.60;;;32.20;;
22435;SDS011;11385;50.822;4.324;2023-01-26T00:41:07;88.92;;;31.37;;
22435;SDS011;11385;50.822;4.324;2023-01-26T00:43:37;89.07;;;31.07;;
22435;SDS011;11385;50.822;4.324;2023-01-26T00:46:03;81.70;;;30.35;;
22435;SDS011;11385;50.822;4.324;2023-01-26T00:48:30;86.28;;;31.80;;
22435;SDS011;11385;50.822;4.324;2023-01-26T00:50:56;84.28;;;33.23;;
22435;SDS011;11385;50.822;4.324;2023-01-26T00:53:23;96.70;;;34.15;;
22435;SDS011;11385;50.822;4.324;2023-01-26T00:55:50;85.20;;;30.60;;
22435;SDS011;11385;50.822;4.324;2023-01-26T00:58:18;89.85;;;32.80;;
22435;SDS011;11385;50.822;4.324;2023-01-26T01:00:45;86.87;;;33.88;;
22435;SDS011;11385;50.822;4.324;2023-01-26T01:03:11;93.52;;;33.42;;
22435;SDS011;11385;50.822;4.324;2023-01-26T01:05:38;91.57;;;32.73;;
22435;SDS011;11385;50.822;4.324;2023-01-26T01:08:05;90.30;;;33.00;;
22435;SDS011;11385;50.822;4.324;2023-01-26T01:10:31;90.17;;;33.70;;
22435;SDS011;11385;50.822;4.324;2023-01-26T01:12:58;88.82;;;33.30;;
22435;SDS011;11385;50.822;4.324;2023-01-26T01:15:25;89.87;;;33.92;;
22435;SDS011;11385;50.822;4.324;2023-01-26T01:17:52;94.77;;;35.33;;
22435;SDS011;11385;50.822;4.324;2023-01-26T01:20:18;94.03;;;33.05;;
22435;SDS011;11385;50.822;4.324;2023-01-26T01:22:45;85.47;;;33.02;;
22435;SDS011;11385;50.822;4.324;2023-01-26T01:25:12;99.40;;;36.00;;
22435;SDS011;11385;50.822;4.324;2023-01-26T01:27:39;95.77;;;35.43;;
22435;SDS011;11385;50.822;4.324;2023-01-26T01:30:06;98.05;;;37.38;;
22435;SDS011;11385;50.822;4.324;2023-01-26T01:32:34;94.85;;;36.55;;
22435;SDS011;11385;50.822;4.324;2023-01-26T01:35:01;90.50;;;35.43;;
22435;SDS011;11385;50.822;4.324;2023-01-26T01:37:28;95.57;;;35.68;;
22435;SDS011;11385;50.822;4.324;2023-01-26T01:39:55;97.12;;;34.83;;
22435;SDS011;11385;50.822;4.324;2023-01-26T01:42:22;95.25;;;34.98;;
22435;SDS011;11385;50.822;4.324;2023-01-26T01:49:59;97.90;;;35.45;;
22435;SDS011;11385;50.822;4.324;2023-01-26T01:52:29;97.65;;;35.05;;
22435;SDS011;11385;50.822;4.324;2023-01-26T01:54:58;89.00;;;34.53;;
22435;SDS011;11385;50.822;4.324;2023-01-26T01:57:32;93.55;;;35.38;;
22435;SDS011;11385;50.822;4.324;2023-01-26T02:00:05;87.33;;;33.00;;
22435;SDS011;11385;50.822;4.324;2023-01-26T02:02:36;92.95;;;34.55;;
22435;SDS011;11385;50.822;4.324;2023-01-26T02:05:09;92.27;;;32.90;;
22435;SDS011;11385;50.822;4.324;2023-01-26T02:07:37;87.35;;;33.33;;
22435;SDS011;11385;50.822;4.324;2023-01-26T02:10:04;87.72;;;31.05;;
22435;SDS011;11385;50.822;4.324;2023-01-26T02:12:46;86.65;;;32.98;;
22435;SDS011;11385;50.822;4.324;2023-01-26T02:15:18;89.00;;;32.05;;
22435;SDS011;11385;50.822;4.324;2023-01-26T02:17:44;89.67;;;33.48;;
22435;SDS011;11385;50.822;4.324;2023-01-26T02:20:25;85.95;;;32.30;;
22435;SDS011;11385;50.822;4.324;2023-01-26T02:26:08;87.22;;;32.38;;
22435;SDS011;11385;50.822;4.324;2023-01-26T02:28:38;87.08;;;31.17;;
22435;SDS011;11385;50.822;4.324;2023-01-26T02:31:05;84.32;;;31.80;;
22435;SDS011;11385;50.822;4.324;2023-01-26T02:33:33;82.40;;;31.50;;
22435;SDS011;11385;50.822;4.324;2023-01-26T02:36:00;87.08;;;32.08;;
22435;SDS011;11385;50.822;4.324;2023-01-26T02:38:30;91.22;;;33.15;;
22435;SDS011;11385;50.822;4.324;2023-01-26T02:41:05;82.70;;;31.20;;
22435;SDS011;11385;50.822;4.324;2023-01-26T02:43:35;87.92;;;30.88;;
22435;SDS011;11385;50.822;4.324;2023-01-26T02:46:02;80.70;;;30.97;;
22435;SDS011;11385;50.822;4.324;2023-01-26T02:48:29;88.33;;;31.05;;
22435;SDS011;11385;50.822;4.324;2023-01-26T02:51:01;89.90;;;32.60;;
22435;SDS011;11385;50.822;4.324;2023-01-26T02:53:29;90.32;;;33.13;;
22435;SDS011;11385;50.822;4.324;2023-01-26T02:55:58;85.53;;;30.02;;
22435;SDS011;11385;50.822;4.324;2023-01-26T02:58:25;86.30;;;32.28;;
22435;SDS011;11385;50.822;4.324;2023-01-26T03:00:51;82.97;;;32.08;;
22435;SDS011;11385;50.822;4.324;2023-01-26T03:03:20;82.60;;;31.48;;
22435;SDS011;11385;50.822;4.324;2023-01-26T03:05:49;83.42;;;32.45;;
22435;SDS011;11385;50.822;4.324;2023-01-26T03:08:16;87.85;;;32.65;;
22435;SDS011;11385;50.822;4.324;2023-01-26T03:10:43;88.27;;;31.55;;
22435;SDS011;11385;50.822;4.324;2023-01-26T03:13:11;83.33;;;32.33;;
22435;SDS011;11385;50.822;4.324;2023-01-26T03:15:39;80.35;;;31.73;;
22435;SDS011;11385;50.822;4.324;2023-01-26T03:18:10;86.92;;;31.70;;
22435;SDS011;11385;50.822;4.324;2023-01-26T03:20:46;78.87;;;30.12;;
22435;SDS011;11385;50.822;4.324;2023-01-26T03:23:19;81.60;;;33.02;;
22435;SDS011;11385;50.822;4.324;2023-01-26T03:25:51;78.65;;;30.82;;
22435;SDS011;11385;50.822;4.324;2023-01-26T03:28:23;85.53;;;31.50;;
22435;SDS011;11385;50.822;4.324;2023-01-26T03:30:51;84.13;;;31.70;;
22435;SDS011;11385;50.822;4.324;2023-01-26T03:33:20;84.00;;;32.95;;
22435;SDS011;11385;50.822;4.324;2023-01-26T03:35:47;83.55;;;31.20;;
22435;SDS011;11385;50.822;4.324;2023-01-26T03:38:13;82.17;;;31.60;;
22435;SDS011;11385;50.822;4.324;2023-01-26T03:40:40;86.97;;;32.65;;
22435;SDS011;11385;50.822;4.324;2023-01-26T03:43:12;84.50;;;33.25;;
22435;SDS011;11385;50.822;4.324;2023-01-26T03:45:44;85.75;;;30.55;;
22435;SDS011;11385;50.822;4.324;2023-01-26T03:48:17;86.65;;;31.48;;
22435;SDS011;11385;50.822;4.324;2023-01-26T03:50:49;84.35;;;31.23;;
22435;SDS011;11385;50.822;4.324;2023-01-26T03:53:22;81.65;;;31.65;;
22435;SDS011;11385;50.822;4.324;2023-01-26T03:55:55;80.55;;;31.12;;
22435;SDS011;11385;50.822;4.324;2023-01-26T03:58:27;80.90;;;31.17;;
22435;SDS011;11385;50.822;4.324;2023-01-26T04:00:55;81.87;;;32.40;;
22435;SDS011;11385;50.822;4.324;2023-01-26T04:03:22;74.67;;;28.32;;
22435;SDS011;11385;50.822;4.324;2023-01-26T04:05:56;80.85;;;31.33;;
22435;SDS011;11385;50.822;4.324;2023-01-26T04:08:29;75.08;;;29.72;;
22435;SDS011;11385;50.822;4.324;2023-01-26T04:10:55;70.30;;;27.77;;
22435;SDS011;11385;50.822;4.324;2023-01-26T04:13:22;72.87;;;28.23;;
22435;SDS011;11385;50.822;4.324;2023-01-26T04:15:55;73.92;;;27.93;;
22435;SDS011;11385;50.822;4.324;2023-01-26T04:18:27;74.95;;;28.98;;
22435;SDS011;11385;50.822;4.324;2023-01-26T04:21:02;76.90;;;29.92;;
22435;SDS011;11385;50.822;4.324;2023-01-26T04:23:35;79.10;;;30.55;;
22435;SDS011;11385;50.822;4.324;2023-01-26T04:26:02;76.60;;;29.87;;
22435;SDS011;11385;50.822;4.324;2023-01-26T04:28:29;73.10;;;28.77;;
22435;SDS011;11385;50.822;4.324;2023-01-26T04:30:55;75.90;;;29.15;;
22435;SDS011;11385;50.822;4.324;2023-01-26T04:33:22;73.95;;;28.15;;
22435;SDS011;11385;50.822;4.324;2023-01-26T04:35:49;71.57;;;27.87;;
22435;SDS011;11385;50.822;4.324;2023-01-26T04:38:15;74.77;;;29.05;;
22435;SDS011;11385;50.822;4.324;2023-01-26T04:40:42;83.60;;;30.45;;
22435;SDS011;11385;50.822;4.324;2023-01-26T04:43:08;74.25;;;27.32;;
22435;SDS011;11385;50.822;4.324;2023-01-26T04:45:35;71.20;;;27.67;;
22435;SDS011;11385;50.822;4.324;2023-01-26T04:48:02;71.92;;;27.42;;
22435;SDS011;11385;50.822;4.324;2023-01-26T04:50:28;70.15;;;27.37;;
22435;SDS011;11385;50.822;4.324;2023-01-26T04:52:55;76.10;;;28.07;;
22435;SDS011;11385;50.822;4.324;2023-01-26T04:55:21;68.50;;;26.40;;
22435;SDS011;11385;50.822;4.324;2023-01-26T04:57:48;70.75;;;27.40;;
22435;SDS011;11385;50.822;4.324;2023-01-26T05:00:15;76.67;;;28.45;;
22435;SDS011;11385;50.822;4.324;2023-01-26T05:02:41;77.15;;;28.80;;
22435;SDS011;11385;50.822;4.324;2023-01-26T05:05:08;73.97;;;28.87;;
22435;SDS011;11385;50.822;4.324;2023-01-26T05:07:35;75.12;;;28.92;;
22435;SDS011;11385;50.822;4.324;2023-01-26T05:10:02;75.50;;;29.52;;
22435;SDS011;11385;50.822;4.324;2023-01-26T05:12:28;75.45;;;27.98;;
22435;SDS011;11385;50.822;4.324;2023-01-26T05:14:58;76.57;;;28.87;;
22435;SDS011;11385;50.822;4.324;2023-01-26T05:17:25;76.65;;;28.75;;
22435;SDS011;11385;50.822;4.324;2023-01-26T05:19:51;74.60;;;28.23;;
22435;SDS011;11385;50.822;4.324;2023-01-26T05:22:18;77.78;;;28.70;;
22435;SDS011;11385;50.822;4.324;2023-01-26T05:24:44;72.92;;;27.90;;
22435;SDS011;11385;50.822;4.324;2023-01-26T05:27:11;78.52;;;28.38;;
22435;SDS011;11385;50.822;4.324;2023-01-26T05:29:43;80.70;;;28.62;;
22435;SDS011;11385;50.822;4.324;2023-01-26T05:32:10;85.35;;;30.90;;
22435;SDS011;11385;50.822;4.324;2023-01-26T05:34:36;79.77;;;29.37;;
22435;SDS011;11385;50.822;4.324;2023-01-26T05:37:03;73.67;;;28.27;;
22435;SDS011;11385;50.822;4.324;2023-01-26T05:39:30;78.57;;;28.70;;
22435;SDS011;11385;50.822;4.324;2023-01-26T05:41:57;72.87;;;26.77;;
22435;SDS011;11385;50.822;4.324;2023-01-26T05:44:23;71.07;;;25.70;;
22435;SDS011;11385;50.822;4.324;2023-01-26T05:46:50;67.97;;;27.40;;
22435;SDS011;11385;50.822;4.324;2023-01-26T05:49:17;66.72;;;25.02;;
22435;SDS011;11385;50.822;4.324;2023-01-26T05:51:44;69.17;;;26.40;;
22435;SDS011;11385;50.822;4.324;2023-01-26T05:54:10;68.20;;;26.40;;
22435;SDS011;11385;50.822;4.324;2023-01-26T05:56:37;63.87;;;26.12;;
22435;SDS011;11385;50.822;4.324;2023-01-26T05:59:03;69.47;;;24.85;;
22435;SDS011;11385;50.822;4.324;2023-01-26T06:01:30;67.30;;;24.92;;
22435;SDS011;11385;50.822;4.324;2023-01-26T06:03:57;61.58;;;23.95;;
22435;SDS011;11385;50.822;4.324;2023-01-26T06:06:23;62.55;;;24.10;;
22435;SDS011;11385;50.822;4.324;2023-01-26T06:08:50;59.98;;;24.25;;
22435;SDS011;11385;50.822;4.324;2023-01-26T06:11:16;60.80;;;23.77;;
22435;SDS011;11385;50.822;4.324;2023-01-26T06:13:43;60.38;;;24.32;;
22435;SDS011;11385;50.822;4.324;2023-01-26T06:16:10;61.35;;;23.70;;
22435;SDS011;11385;50.822;4.324;2023-01-26T06:18:37;57.48;;;23.38;;
22435;SDS011;11385;50.822;4.324;2023-01-26T06:21:03;62.85;;;24.57;;
22435;SDS011;11385;50.822;4.324;2023-01-26T06:23:30;63.42;;;24.12;;
22435;SDS011;11385;50.822;4.324;2023-01-26T06:25:58;60.45;;;25.92;;
22435;SDS011;11385;50.822;4.324;2023-01-26T06:28:26;60.65;;;23.18;;
22435;SDS011;11385;50.822;4.324;2023-01-26T06:31:02;108.55;;;53.98;;
22435;SDS011;11385;50.822;4.324;2023-01-26T06:33:31;64.00;;;24.20;;
22435;SDS011;11385;50.822;4.324;2023-01-26T06:36:02;56.60;;;23.22;;
22435;SDS011;11385;50.822;4.324;2023-01-26T06:38:30;54.73;;;21.73;;
22435;SDS011;11385;50.822;4.324;2023-01-26T06:40:59;56.68;;;23.67;;
22435;SDS011;11385;50.822;4.324;2023-01-26T06:43:28;56.00;;;21.48;;
22435;SDS011;11385;50.822;4.324;2023-01-26T06:45:56;54.38;;;22.40;;
22435;SDS011;11385;50.822;4.324;2023-01-26T06:48:24;59.50;;;22.37;;
22435;SDS011;11385;50.822;4.324;2023-01-26T06:50:51;50.48;;;21.20;;
22435;SDS011;11385;50.822;4.324;2023-01-26T06:53:25;53.78;;;20.97;;
22435;SDS011;11385;50.822;4.324;2023-01-26T06:55:57;51.65;;;20.45;;
22435;SDS011;11385;50.822;4.324;2023-01-26T06:58:23;55.10;;;23.27;;
22435;SDS011;11385;50.822;4.324;2023-01-26T07:00:50;52.08;;;22.62;;
22435;SDS011;11385;50.822;4.324;2023-01-26T07:03:17;62.75;;;22.22;;
22435;SDS011;11385;50.822;4.324;2023-01-26T07:05:45;51.35;;;20.85;;
22435;SDS011;11385;50.822;4.324;2023-01-26T07:08:13;49.73;;;20.32;;
22435;SDS011;11385;50.822;4.324;2023-01-26T07:10:50;51.63;;;21.07;;
22435;SDS011;11385;50.822;4.324;2023-01-26T07:13:20;51.77;;;21.05;;
22435;SDS011;11385;50.822;4.324;2023-01-26T07:15:46;47.50;;;19.15;;
22435;SDS011;11385;50.822;4.324;2023-01-26T07:18:13;50.85;;;19.32;;
22435;SDS011;11385;50.822;4.324;2023-01-26T07:20:41;48.08;;;19.92;;
22435;SDS011;11385;50.822;4.324;2023-01-26T07:23:08;51.55;;;21.45;;
22435;SDS011;11385;50.822;4.324;2023-01-26T07:25:36;46.13;;;19.57;;
22435;SDS011;11385;50.822;4.324;2023-01-26T07:28:03;48.45;;;19.60;;
22435;SDS011;11385;50.822;4.324;2023-01-26T07:30:33;48.23;;;19.48;;
22435;SDS011;11385;50.822;4.324;2023-01-26T07:33:01;53.10;;;20.92;;
22435;SDS011;11385;50.822;4.324;2023-01-26T07:35:28;54.53;;;19.42;;
22435;SDS011;11385;50.822;4.324;2023-01-26T07:37:55;47.90;;;19.05;;
22435;SDS011;11385;50.822;4.324;2023-01-26T07:40:23;52.50;;;21.30;;
22435;SDS011;11385;50.822;4.324;2023-01-26T07:42:50;47.10;;;20.77;;
22435;SDS011;11385;50.822;4.324;2023-01-26T07:45:17;50.67;;;20.88;;
22435;SDS011;11385;50.822;4.324;2023-01-26T07:47:43;55.48;;;19.48;;
22435;SDS011;11385;50.822;4.324;2023-01-26T07:50:10;47.45;;;19.10;;
22435;SDS011;11385;50.822;4.324;2023-01-26T07:52:38;51.77;;;21.17;;
22435;SDS011;11385;50.822;4.324;2023-01-26T07:55:06;55.75;;;21.30;;
22435;SDS011;11385;50.822;4.324;2023-01-26T07:57:32;49.85;;;19.92;;
22435;SDS011;11385;50.822;4.324;2023-01-26T08:00:00;49.50;;;19.32;;
22435;SDS011;11385;50.822;4.324;2023-01-26T08:02:28;53.58;;;18.95;;
22435;SDS011;11385;50.822;4.324;2023-01-26T08:04:55;45.78;;;19.40;;
22435;SDS011;11385;50.822;4.324;2023-01-26T08:07:21;48.87;;;19.92;;
22435;SDS011;11385;50.822;4.324;2023-01-26T08:09:48;48.17;;;19.10;;
22435;SDS011;11385;50.822;4.324;2023-01-26T08:12:15;46.53;;;19.23;;
22435;SDS011;11385;50.822;4.324;2023-01-26T08:14:41;45.35;;;18.27;;
22435;SDS011;11385;50.822;4.324;2023-01-26T08:17:08;43.45;;;17.40;;
22435;SDS011;11385;50.822;4.324;2023-01-26T08:19:36;42.43;;;18.37;;
22435;SDS011;11385;50.822;4.324;2023-01-26T08:22:02;47.17;;;19.07;;
22435;SDS011;11385;50.822;4.324;2023-01-26T08:24:29;42.70;;;18.55;;
22435;SDS011;11385;50.822;4.324;2023-01-26T08:26:55;48.63;;;19.73;;
22435;SDS011;11385;50.822;4.324;2023-01-26T08:29:22;47.27;;;18.75;;
22435;SDS011;11385;50.822;4.324;2023-01-26T08:31:49;48.20;;;19.52;;
22435;SDS011;11385;50.822;4.324;2023-01-26T08:34:16;45.52;;;19.35;;
22435;SDS011;11385;50.822;4.324;2023-01-26T08:36:42;45.28;;;17.55;;
22435;SDS011;11385;50.822;4.324;2023-01-26T08:39:09;49.90;;;18.62;;
22435;SDS011;11385;50.822;4.324;2023-01-26T08:41:36;45.35;;;18.87;;
22435;SDS011;11385;50.822;4.324;2023-01-26T08:44:04;48.33;;;18.75;;
22435;SDS011;11385;50.822;4.324;2023-01-26T08:46:32;47.73;;;18.02;;
22435;SDS011;11385;50.822;4.324;2023-01-26T08:48:59;48.83;;;19.02;;
22435;SDS011;11385;50.822;4.324;2023-01-26T08:51:25;49.38;;;20.52;;
22435;SDS011;11385;50.822;4.324;2023-01-26T08:53:53;44.58;;;17.98;;
22435;SDS011;11385;50.822;4.324;2023-01-26T08:56:19;43.85;;;18.12;;
22435;SDS011;11385;50.822;4.324;2023-01-26T08:58:46;57.73;;;25.77;;
22435;SDS011;11385;50.822;4.324;2023-01-26T09:01:14;63.02;;;30.02;;
22435;SDS011;11385;50.822;4.324;2023-01-26T09:03:41;54.13;;;23.55;;
22435;SDS011;11385;50.822;4.324;2023-01-26T09:06:09;46.00;;;19.00;;
22435;SDS011;11385;50.822;4.324;2023-01-26T09:08:39;46.35;;;19.42;;
22435;SDS011;11385;50.822;4.324;2023-01-26T09:11:06;49.50;;;19.07;;
22435;SDS011;11385;50.822;4.324;2023-01-26T09:13:34;41.60;;;18.17;;
22435;SDS011;11385;50.822;4.324;2023-01-26T09:16:08;40.50;;;17.70;;
22435;SDS011;11385;50.822;4.324;2023-01-26T09:18:39;45.05;;;19.70;;
22435;SDS011;11385;50.822;4.324;2023-01-26T09:21:07;47.38;;;18.45;;
22435;SDS011;11385;50.822;4.324;2023-01-26T09:23:34;45.28;;;19.25;;
22435;SDS011;11385;50.822;4.324;2023-01-26T09:26:03;41.90;;;17.90;;
22435;SDS011;11385;50.822;4.324;2023-01-26T09:28:29;44.33;;;19.07;;
22435;SDS011;11385;50.822;4.324;2023-01-26T09:30:56;46.77;;;18.55;;
22435;SDS011;11385;50.822;4.324;2023-01-26T09:33:25;45.85;;;19.02;;
22435;SDS011;11385;50.822;4.324;2023-01-26T09:35:52;39.80;;;17.37;;
22435;SDS011;11385;50.822;4.324;2023-01-26T09:38:20;37.00;;;15.78;;
22435;SDS011;11385;50.822;4.324;2023-01-26T09:40:50;36.00;;;15.83;;
22435;SDS011;11385;50.822;4.324;2023-01-26T09:43:24;38.95;;;15.45;;
22435;SDS011;11385;50.822;4.324;2023-01-26T09:46:07;42.27;;;16.40;;
22435;SDS011;11385;50.822;4.324;2023-01-26T09:48:42;32.15;;;15.25;;
22435;SDS011;11385;50.822;4.324;2023-01-26T09:51:35;37.90;;;16.62;;
22435;SDS011;11385;50.822;4.324;2023-01-26T09:54:09;35.75;;;16.42;;
22435;SDS011;11385;50.822;4.324;2023-01-26T09:56:54;35.40;;;15.83;;
22435;SDS011;11385;50.822;4.324;2023-01-26T09:59:41;34.95;;;15.95;;
22435;SDS011;11385;50.822;4.324;2023-01-26T10:02:19;36.25;;;17.27;;
22435;SDS011;11385;50.822;4.324;2023-01-26T10:04:48;32.15;;;15.28;;
22435;SDS011;11385;50.822;4.324;2023-01-26T10:07:18;33.70;;;16.15;;
22435;SDS011;11385;50.822;4.324;2023-01-26T10:09:45;28.25;;;13.90;;
22435;SDS011;11385;50.822;4.324;2023-01-26T10:12:18;29.42;;;14.13;;
22435;SDS011;11385;50.822;4.324;2023-01-26T10:14:51;31.57;;;14.15;;
22435;SDS011;11385;50.822;4.324;2023-01-26T10:17:25;32.88;;;15.78;;
22435;SDS011;11385;50.822;4.324;2023-01-26T10:20:00;33.33;;;16.05;;
22435;SDS011;11385;50.822;4.324;2023-01-26T10:22:37;31.35;;;16.12;;
22435;SDS011;11385;50.822;4.324;2023-01-26T10:25:19;31.57;;;15.35;;
22435;SDS011;11385;50.822;4.324;2023-01-26T10:27:52;35.20;;;14.73;;
22435;SDS011;11385;50.822;4.324;2023-01-26T10:30:19;33.18;;;15.78;;
22435;SDS011;11385;50.822;4.324;2023-01-26T10:32:46;35.65;;;15.75;;
22435;SDS011;11385;50.822;4.324;2023-01-26T10:35:19;32.65;;;15.83;;
22435;SDS011;11385;50.822;4.324;2023-01-26T10:37:47;28.02;;;13.20;;
22435;SDS011;11385;50.822;4.324;2023-01-26T10:40:14;42.83;;;17.90;;
22435;SDS011;11385;50.822;4.324;2023-01-26T10:42:41;36.38;;;16.52;;
22435;SDS011;11385;50.822;4.324;2023-01-26T10:52:03;44.05;;;16.65;;
22435;SDS011;11385;50.822;4.324;2023-01-26T10:54:33;42.20;;;16.77;;
22435;SDS011;11385;50.822;4.324;2023-01-26T10:57:03;41.45;;;17.07;;
22435;SDS011;11385;50.822;4.324;2023-01-26T10:59:37;45.08;;;18.42;;
22435;SDS011;11385;50.822;4.324;2023-01-26T11:02:26;47.58;;;18.07;;
22435;SDS011;11385;50.822;4.324;2023-01-26T11:05:18;47.20;;;18.77;;
22435;SDS011;11385;50.822;4.324;2023-01-26T11:07:49;46.28;;;18.42;;
22435;SDS011;11385;50.822;4.324;2023-01-26T11:10:21;45.12;;;19.23;;
22435;SDS011;11385;50.822;4.324;2023-01-26T11:15:20;48.58;;;17.77;;
22435;SDS011;11385;50.822;4.324;2023-01-26T11:17:51;55.73;;;19.73;;
22435;SDS011;11385;50.822;4.324;2023-01-26T11:20:35;52.05;;;19.17;;
22435;SDS011;11385;50.822;4.324;2023-01-26T11:23:12;47.73;;;20.00;;
22435;SDS011;11385;50.822;4.324;2023-01-26T11:28:33;52.62;;;21.12;;
22435;SDS011;11385;50.822;4.324;2023-01-26T11:31:10;60.50;;;23.35;;
22435;SDS011;11385;50.822;4.324;2023-01-26T11:33:49;59.05;;;22.02;;
22435;SDS011;11385;50.822;4.324;2023-01-26T11:36:51;56.98;;;21.05;;
22435;SDS011;11385;50.822;4.324;2023-01-26T11:39:18;57.05;;;22.13;;
22435;SDS011;11385;50.822;4.324;2023-01-26T11:41:52;59.98;;;23.02;;
22435;SDS011;11385;50.822;4.324;2023-01-26T11:44:26;58.38;;;22.60;;
22435;SDS011;11385;50.822;4.324;2023-01-26T11:47:13;52.90;;;24.12;;
22435;SDS011;11385;50.822;4.324;2023-01-26T11:49:47;63.65;;;22.77;;
22435;SDS011;11385;50.822;4.324;2023-01-26T11:52:23;56.50;;;22.87;;
22435;SDS011;11385;50.822;4.324;2023-01-26T11:54:57;57.30;;;22.37;;
22435;SDS011;11385;50.822;4.324;2023-01-26T11:57:31;52.17;;;21.40;;
22435;SDS011;11385;50.822;4.324;2023-01-26T12:02:30;49.65;;;20.12;;
22435;SDS011;11385;50.822;4.324;2023-01-26T12:05:09;60.88;;;22.30;;
22435;SDS011;11385;50.822;4.324;2023-01-26T12:07:41;55.80;;;22.27;;
22435;SDS011;11385;50.822;4.324;2023-01-26T12:10:20;53.08;;;21.68;;
22435;SDS011;11385;50.822;4.324;2023-01-26T12:12:54;58.50;;;23.35;;
22435;SDS011;11385;50.822;4.324;2023-01-26T12:15:29;58.70;;;22.60;;
22435;SDS011;11385;50.822;4.324;2023-01-26T12:17:59;63.13;;;23.20;;
22435;SDS011;11385;50.822;4.324;2023-01-26T12:20:34;57.45;;;22.37;;
22435;SDS011;11385;50.822;4.324;2023-01-26T12:23:08;57.85;;;22.45;;
22435;SDS011;11385;50.822;4.324;2023-01-26T12:25:54;68.37;;;23.12;;
22435;SDS011;11385;50.822;4.324;2023-01-26T12:28:23;60.15;;;22.80;;
22435;SDS011;11385;50.822;4.324;2023-01-26T12:30:58;58.68;;;21.35;;
22435;SDS011;11385;50.822;4.324;2023-01-26T12:33:30;54.80;;;21.60;;
22435;SDS011;11385;50.822;4.324;2023-01-26T12:39:19;55.45;;;21.33;;
22435;SDS011;11385;50.822;4.324;2023-01-26T12:42:02;58.95;;;21.48;;
22435;SDS011;11385;50.822;4.324;2023-01-26T12:44:38;59.20;;;20.93;;
22435;SDS011;11385;50.822;4.324;2023-01-26T12:47:09;63.40;;;22.20;;
22435;SDS011;11385;50.822;4.324;2023-01-26T12:49:50;59.58;;;22.27;;
22435;SDS011;11385;50.822;4.324;2023-01-26T12:52:26;61.37;;;22.05;;
22435;SDS011;11385;50.822;4.324;2023-01-26T12:57:57;58.78;;;21.23;;
22435;SDS011;11385;50.822;4.324;2023-01-26T13:00:38;53.83;;;20.60;;
22435;SDS011;11385;50.822;4.324;2023-01-26T13:03:15;59.35;;;20.17;;
22435;SDS011;11385;50.822;4.324;2023-01-26T13:08:39;54.35;;;17.02;;
22435;SDS011;11385;50.822;4.324;2023-01-26T13:11:08;55.43;;;17.02;;
22435;SDS011;11385;50.822;4.324;2023-01-26T13:16:29;49.08;;;13.68;;
22435;SDS011;11385;50.822;4.324;2023-01-26T13:18:59;44.93;;;13.22;;
22435;SDS011;11385;50.822;4.324;2023-01-26T13:21:27;37.42;;;10.93;;
22435;SDS011;11385;50.822;4.324;2023-01-26T13:23:56;40.75;;;11.40;;
22435;SDS011;11385;50.822;4.324;2023-01-26T13:31:48;35.33;;;9.63;;
22435;SDS011;11385;50.822;4.324;2023-01-26T13:34:16;38.05;;;9.33;;
22435;SDS011;11385;50.822;4.324;2023-01-26T13:39:17;35.45;;;8.40;;
22435;SDS011;11385;50.822;4.324;2023-01-26T13:41:46;22.90;;;5.45;;
22435;SDS011;11385;50.822;4.324;2023-01-26T13:44:15;23.32;;;5.05;;
22435;SDS011;11385;50.822;4.324;2023-01-26T13:46:47;25.68;;;5.37;;
22435;SDS011;11385;50.822;4.324;2023-01-26T13:51:50;21.62;;;3.87;;
22435;SDS011;11385;50.822;4.324;2023-01-26T13:54:17;16.48;;;3.80;;
22435;SDS011;11385;50.822;4.324;2023-01-26T13:59:23;23.27;;;3.62;;
22435;SDS011;11385;50.822;4.324;2023-01-26T14:01:51;15.95;;;3.72;;
22435;SDS011;11385;50.822;4.324;2023-01-26T14:04:21;19.25;;;3.47;;
22435;SDS011;11385;50.822;4.324;2023-01-26T14:06:55;15.25;;;3.12;;
22435;SDS011;11385;50.822;4.324;2023-01-26T14:09:30;11.85;;;2.72;;
22435;SDS011;11385;50.822;4.324;2023-01-26T14:12:00;18.17;;;2.70;;
22435;SDS011;11385;50.822;4.324;2023-01-26T14:14:32;15.72;;;2.70;;
22435;SDS011;11385;50.822;4.324;2023-01-26T14:17:05;15.23;;;3.65;;
22435;SDS011;11385;50.822;4.324;2023-01-26T14:19:32;13.43;;;2.62;;
22435;SDS011;11385;50.822;4.324;2023-01-26T14:22:09;12.80;;;2.80;;
22435;SDS011;11385;50.822;4.324;2023-01-26T14:24:37;14.75;;;2.30;;
22435;SDS011;11385;50.822;4.324;2023-01-26T14:27:14;15.10;;;2.92;;
22435;SDS011;11385;50.822;4.324;2023-01-26T14:29:40;17.87;;;2.98;;
22435;SDS011;11385;50.822;4.324;2023-01-26T14:32:11;14.40;;;3.10;;
22435;SDS011;11385;50.822;4.324;2023-01-26T14:37:11;21.65;;;3.17;;
22435;SDS011;11385;50.822;4.324;2023-01-26T14:39:40;18.23;;;3.02;;
22435;SDS011;11385;50.822;4.324;2023-01-26T14:42:11;19.00;;;4.17;;
22435;SDS011;11385;50.822;4.324;2023-01-26T14:44:43;16.02;;;2.77;;
22435;SDS011;11385;50.822;4.324;2023-01-26T14:49:55;18.15;;;3.37;;
22435;SDS011;11385;50.822;4.324;2023-01-26T14:52:28;16.23;;;3.67;;
22435;SDS011;11385;50.822;4.324;2023-01-26T14:54:57;16.82;;;4.00;;
22435;SDS011;11385;50.822;4.324;2023-01-26T14:57:26;20.70;;;4.20;;
22435;SDS011;11385;50.822;4.324;2023-01-26T14:59:55;11.48;;;3.00;;
22435;SDS011;11385;50.822;4.324;2023-01-26T15:02:26;20.17;;;3.50;;
22435;SDS011;11385;50.822;4.324;2023-01-26T15:05:09;17.55;;;2.80;;
22435;SDS011;11385;50.822;4.324;2023-01-26T15:07:42;11.05;;;2.85;;
22435;SDS011;11385;50.822;4.324;2023-01-26T15:10:36;17.92;;;3.40;;
22435;SDS011;11385;50.822;4.324;2023-01-26T15:13:22;15.93;;;3.65;;
22435;SDS011;11385;50.822;4.324;2023-01-26T15:18:30;21.27;;;4.08;;
22435;SDS011;11385;50.822;4.324;2023-01-26T15:20:59;15.93;;;3.10;;
22435;SDS011;11385;50.822;4.324;2023-01-26T15:23:30;20.20;;;3.95;;
22435;SDS011;11385;50.822;4.324;2023-01-26T15:26:05;20.97;;;3.62;;
22435;SDS011;11385;50.822;4.324;2023-01-26T15:28:34;17.15;;;3.42;;
22435;SDS011;11385;50.822;4.324;2023-01-26T15:31:03;12.82;;;2.45;;
22435;SDS011;11385;50.822;4.324;2023-01-26T15:33:36;18.70;;;3.62;;
22435;SDS011;11385;50.822;4.324;2023-01-26T15:36:04;18.17;;;2.95;;